createdAt,value
2023-01-08T00:00:27.794Z,4.40
2023-01-08T00:01:27.777Z,4.40
2023-01-08T00:02:27.718Z,4.20
2023-01-08T00:03:27.790Z,4.10
2023-01-08T00:04:27.775Z,4.30
2023-01-08T00:05:27.665Z,4.20
2023-01-08T00:06:27.721Z,4.30
2023-01-08T00:07:27.646Z,4.00
2023-01-08T00:08:27.620Z,4.20
2023-01-08T00:09:27.594Z,4.10
2023-01-08T00:10:27.681Z,4.40
2023-01-08T00:11:27.614Z,4.20
2023-01-08T00:12:27.545Z,4.40
2023-01-08T00:13:27.530Z,4.60
2023-01-08T00:14:27.623Z,4.10
2023-01-08T00:15:27.505Z,4.50
2023-01-08T00:16:27.516Z,4.30
2023-01-08T00:17:27.492Z,4.40
2023-01-08T00:18:27.480Z,4.10
2023-01-08T00:19:27.443Z,4.00
2023-01-08T00:20:27.477Z,4.00
2023-01-08T00:21:27.442Z,4.20
2023-01-08T00:22:27.412Z,4.00
2023-01-08T00:23:27.364Z,4.40
2023-01-08T00:24:27.377Z,4.30
2023-01-08T00:25:27.326Z,4.20
2023-01-08T00:26:27.302Z,4.30
2023-01-08T00:27:27.327Z,4.80
2023-01-08T00:28:27.296Z,4.50
2023-01-08T00:29:27.291Z,4.40
2023-01-08T00:30:27.326Z,4.30
2023-01-08T00:31:27.236Z,4.60
2023-01-08T00:32:27.242Z,4.40
2023-01-08T00:33:27.183Z,4.20
2023-01-08T00:34:27.182Z,4.60
2023-01-08T00:35:27.145Z,4.50
2023-01-08T00:36:27.215Z,4.50
2023-01-08T00:37:27.152Z,4.30
2023-01-08T00:38:27.126Z,4.60
2023-01-08T00:39:27.115Z,4.30
2023-01-08T00:40:27.075Z,4.00
2023-01-08T00:41:27.052Z,4.50
2023-01-08T00:42:27.086Z,4.20
2023-01-08T00:43:27.025Z,4.60
2023-01-08T00:44:27.000Z,4.40
2023-01-08T00:45:26.993Z,4.40
2023-01-08T00:46:26.971Z,4.40
2023-01-08T00:47:26.986Z,4.30
2023-01-08T00:48:26.934Z,4.60
2023-01-08T00:49:26.926Z,4.40
2023-01-08T00:50:26.926Z,4.50
2023-01-08T00:51:26.897Z,4.20
2023-01-08T00:52:26.966Z,4.00
2023-01-08T00:53:26.855Z,4.50
2023-01-08T00:54:26.833Z,4.50
2023-01-08T00:55:26.839Z,4.40
2023-01-08T00:56:26.796Z,4.50
2023-01-08T00:57:26.814Z,4.50
2023-01-08T00:58:26.786Z,4.50
2023-01-08T00:59:26.768Z,4.40
2023-01-08T01:00:26.780Z,4.20
2023-01-08T01:01:26.828Z,4.30
2023-01-08T01:02:26.779Z,4.30
2023-01-08T01:03:26.708Z,4.30
2023-01-08T01:04:26.744Z,4.20
2023-01-08T01:05:26.633Z,4.30
2023-01-08T01:06:26.639Z,4.50
2023-01-08T01:07:26.647Z,4.50
2023-01-08T01:08:26.664Z,4.30
2023-01-08T01:09:26.582Z,4.50
2023-01-08T01:10:26.559Z,4.40
2023-01-08T01:11:26.541Z,4.20
2023-01-08T01:12:26.553Z,4.10
2023-01-08T01:13:26.521Z,4.40
2023-01-08T01:14:26.484Z,4.50
2023-01-08T01:15:26.467Z,4.40
2023-01-08T01:16:26.539Z,4.50
2023-01-08T01:17:26.460Z,4.50
2023-01-08T01:18:26.417Z,4.40
2023-01-08T01:19:26.412Z,4.20
2023-01-08T01:20:26.383Z,4.50
2023-01-08T01:21:26.382Z,4.60
2023-01-08T01:22:26.388Z,4.80
2023-01-08T01:23:26.372Z,4.60
2023-01-08T01:24:26.392Z,4.40
2023-01-08T01:25:26.308Z,4.80
2023-01-08T01:26:26.289Z,4.50
2023-01-08T01:27:26.293Z,4.60
2023-01-08T01:28:26.264Z,4.80
2023-01-08T01:29:26.230Z,4.60
2023-01-08T01:30:26.207Z,4.50
2023-01-08T01:31:26.197Z,4.80
2023-01-08T01:32:26.208Z,4.80
2023-01-08T01:33:26.163Z,4.70
2023-01-08T01:34:26.149Z,4.50
2023-01-08T01:35:26.144Z,4.50
2023-01-08T01:36:26.120Z,4.60
2023-01-08T01:37:26.131Z,5.00
2023-01-08T01:38:26.088Z,4.60
2023-01-08T01:39:26.058Z,4.60
2023-01-08T01:40:26.124Z,4.70
2023-01-08T01:41:26.041Z,4.90
2023-01-08T01:42:26.047Z,4.90
2023-01-08T01:43:25.993Z,4.80
2023-01-08T01:44:25.972Z,4.90
2023-01-08T01:45:25.944Z,5.10
2023-01-08T01:46:25.952Z,4.90
2023-01-08T01:47:25.955Z,5.00
2023-01-08T01:48:25.913Z,5.10
2023-01-08T01:49:25.890Z,5.10
2023-01-08T01:50:25.916Z,5.00
2023-01-08T01:51:25.848Z,5.10
2023-01-08T01:52:25.924Z,5.20
2023-01-08T01:53:25.845Z,5.50
2023-01-08T01:54:25.810Z,5.30
2023-01-08T01:55:25.801Z,5.50
2023-01-08T01:56:25.852Z,4.90
2023-01-08T01:57:25.775Z,5.10
2023-01-08T01:58:25.739Z,5.10
2023-01-08T01:59:25.735Z,5.20
2023-01-08T02:00:25.769Z,5.30
2023-01-08T02:01:25.859Z,5.30
2023-01-08T02:02:25.814Z,4.90
2023-01-08T02:03:25.656Z,5.30
2023-01-08T02:04:25.691Z,5.70
2023-01-08T02:05:25.616Z,5.10
2023-01-08T02:06:25.611Z,5.30
2023-01-08T02:07:25.618Z,5.20
2023-01-08T02:08:25.576Z,5.00
2023-01-08T02:09:25.542Z,5.30
2023-01-08T02:10:25.539Z,5.20
2023-01-08T02:11:25.515Z,5.30
2023-01-08T02:12:25.594Z,5.00
2023-01-08T02:13:25.478Z,5.20
2023-01-08T02:14:25.467Z,5.20
2023-01-08T02:15:25.442Z,5.50
2023-01-08T02:16:25.504Z,4.80
2023-01-08T02:17:25.454Z,5.10
2023-01-08T02:18:25.403Z,4.90
2023-01-08T02:19:25.366Z,5.20
2023-01-08T02:20:25.356Z,5.20
2023-01-08T02:21:25.337Z,5.40
2023-01-08T02:22:25.370Z,5.40
2023-01-08T02:23:25.319Z,5.10
2023-01-08T02:24:25.304Z,5.50
2023-01-08T02:25:25.283Z,5.10
2023-01-08T02:26:25.258Z,5.60
2023-01-08T02:27:25.266Z,5.50
2023-01-08T02:28:25.413Z,5.60
2023-01-08T02:29:25.231Z,5.60
2023-01-08T02:30:25.184Z,5.30
2023-01-08T02:31:25.187Z,5.30
2023-01-08T02:32:25.185Z,5.30
2023-01-08T02:33:25.146Z,5.40
2023-01-08T02:34:25.134Z,5.30
2023-01-08T02:35:25.101Z,5.20
2023-01-08T02:36:25.097Z,5.70
2023-01-08T02:37:25.121Z,5.60
2023-01-08T02:38:25.056Z,5.80
2023-01-08T02:39:26.054Z,5.70
2023-01-08T02:40:25.029Z,5.80
2023-01-08T02:41:24.998Z,5.80
2023-01-08T02:42:25.008Z,5.90
2023-01-08T02:43:24.963Z,5.90
2023-01-08T02:44:25.027Z,5.70
2023-01-08T02:45:24.935Z,5.90
2023-01-08T02:46:25.059Z,5.90
2023-01-08T02:47:24.931Z,5.70
2023-01-08T02:48:24.882Z,6.20
2023-01-08T02:49:24.878Z,6.10
2023-01-08T02:50:24.854Z,5.80
2023-01-08T02:51:24.847Z,6.50
2023-01-08T02:52:24.873Z,6.00
2023-01-08T02:53:24.809Z,6.00
2023-01-08T02:54:24.913Z,6.10
2023-01-08T02:55:24.777Z,6.20
2023-01-08T02:56:24.756Z,6.30
2023-01-08T02:57:24.772Z,6.40
2023-01-08T02:58:24.770Z,6.20
2023-01-08T02:59:24.693Z,6.60
2023-01-08T03:00:24.761Z,6.10
2023-01-08T03:01:24.743Z,6.00
2023-01-08T03:02:24.834Z,6.60
2023-01-08T03:03:24.626Z,6.80
2023-01-08T03:04:24.708Z,6.80
2023-01-08T03:05:24.599Z,6.90
2023-01-08T03:06:24.589Z,6.40
2023-01-08T03:07:24.600Z,6.30
2023-01-08T03:08:24.569Z,6.50
2023-01-08T03:09:24.522Z,6.80
2023-01-08T03:10:24.512Z,6.40
2023-01-08T03:11:24.517Z,6.30
2023-01-08T03:12:24.489Z,6.50
2023-01-08T03:13:24.501Z,6.70
2023-01-08T03:14:24.455Z,6.50
2023-01-08T03:15:24.424Z,6.80
2023-01-08T03:16:24.537Z,6.70
2023-01-08T03:17:24.402Z,6.90
2023-01-08T03:18:24.425Z,6.80
2023-01-08T03:19:24.366Z,6.80
2023-01-08T03:20:24.352Z,7.00
2023-01-08T03:21:24.345Z,6.60
2023-01-08T03:22:24.308Z,6.70
2023-01-08T03:23:24.329Z,6.70
2023-01-08T03:24:24.279Z,7.10
2023-01-08T03:25:24.271Z,6.40
2023-01-08T03:26:24.242Z,6.60
2023-01-08T03:27:24.224Z,6.90
2023-01-08T03:28:24.252Z,6.30
2023-01-08T03:29:24.202Z,6.40
2023-01-08T03:30:24.175Z,7.10
2023-01-08T03:31:24.148Z,6.70
2023-01-08T03:32:25.225Z,6.90
2023-01-08T03:33:24.182Z,7.30
2023-01-08T03:34:24.149Z,6.70
2023-01-08T03:35:24.082Z,7.20
2023-01-08T03:36:24.113Z,7.10
2023-01-08T03:37:24.059Z,7.00
2023-01-08T03:38:24.062Z,6.50
2023-01-08T03:39:24.026Z,6.90
2023-01-08T03:40:24.024Z,6.90
2023-01-08T03:41:23.989Z,6.60
2023-01-08T03:42:23.974Z,6.90
2023-01-08T03:43:23.992Z,7.50
2023-01-08T03:44:23.944Z,7.40
2023-01-08T03:45:23.940Z,7.30
2023-01-08T03:46:23.934Z,6.70
2023-01-08T03:47:23.891Z,6.90
2023-01-08T03:48:23.993Z,6.90
2023-01-08T03:49:23.870Z,7.00
2023-01-08T03:50:23.830Z,7.10
2023-01-08T03:51:23.828Z,7.20
2023-01-08T03:52:23.809Z,6.80
2023-01-08T03:53:23.825Z,7.40
2023-01-08T03:54:23.797Z,7.20
2023-01-08T03:55:23.763Z,6.80
2023-01-08T03:56:23.739Z,6.90
2023-01-08T03:57:23.740Z,7.20
2023-01-08T03:58:23.728Z,6.90
2023-01-08T03:59:24.691Z,7.10
2023-01-08T04:00:23.676Z,7.40
2023-01-08T04:01:23.774Z,7.80
2023-01-08T04:02:23.738Z,7.10
2023-01-08T04:03:23.670Z,7.40
2023-01-08T04:04:23.778Z,7.20
2023-01-08T04:05:23.596Z,7.30
2023-01-08T04:06:23.575Z,7.30
2023-01-08T04:07:23.554Z,7.30
2023-01-08T04:08:23.580Z,7.70
2023-01-08T04:09:23.516Z,7.70
2023-01-08T04:10:23.512Z,7.60
2023-01-08T04:11:23.506Z,7.70
2023-01-08T04:12:23.472Z,7.50
2023-01-08T04:13:23.510Z,7.50
2023-01-08T04:14:23.447Z,7.90
2023-01-08T04:15:23.451Z,7.80
2023-01-08T04:16:23.401Z,8.00
2023-01-08T04:17:23.389Z,8.20
2023-01-08T04:18:23.407Z,7.80
2023-01-08T04:19:23.368Z,8.20
2023-01-08T04:20:23.430Z,8.30
2023-01-08T04:21:23.337Z,8.00
2023-01-08T04:22:23.308Z,8.50
2023-01-08T04:23:23.331Z,8.90
2023-01-08T04:24:23.303Z,8.90
2023-01-08T04:25:23.262Z,9.00
2023-01-08T04:26:23.247Z,8.30
2023-01-08T04:27:23.220Z,8.90
2023-01-08T04:28:23.239Z,8.70
2023-01-08T04:29:23.207Z,8.70
2023-01-08T04:30:23.182Z,9.30
2023-01-08T04:31:23.226Z,8.60
2023-01-08T04:32:24.139Z,9.10
2023-01-08T04:33:23.147Z,8.80
2023-01-08T04:34:23.117Z,8.70
2023-01-08T04:35:55.532Z,8.40
2023-01-08T04:36:23.083Z,9.60
2023-01-08T04:37:23.058Z,9.50
2023-01-08T04:38:23.084Z,9.00
2023-01-08T04:39:23.015Z,9.80
2023-01-08T04:40:23.003Z,9.60
2023-01-08T04:41:22.990Z,9.90
2023-01-08T04:42:22.970Z,9.80
2023-01-08T04:43:22.987Z,10.30
2023-01-08T04:44:22.941Z,10.10
2023-01-08T04:45:22.932Z,10.50
2023-01-08T04:46:22.941Z,10.20
2023-01-08T04:47:22.901Z,11.00
2023-01-08T04:48:22.906Z,11.00
2023-01-08T04:49:22.888Z,10.70
2023-01-08T04:50:22.843Z,10.70
2023-01-08T04:51:22.903Z,10.60
2023-01-08T04:52:22.801Z,10.10
2023-01-08T04:53:22.826Z,11.60
2023-01-08T04:54:22.766Z,11.00
2023-01-08T04:55:22.754Z,11.00
2023-01-08T04:56:22.752Z,11.10
2023-01-08T04:57:22.738Z,10.80
2023-01-08T04:58:22.734Z,10.30
2023-01-08T04:59:22.702Z,10.60
2023-01-08T05:00:22.683Z,11.10
2023-01-08T05:01:22.851Z,11.00
2023-01-08T05:02:22.833Z,10.10
2023-01-08T05:03:22.698Z,11.00
2023-01-08T05:04:22.615Z,10.80
2023-01-08T05:05:22.597Z,11.40
2023-01-08T05:06:22.579Z,10.10
2023-01-08T05:07:22.637Z,10.80
2023-01-08T05:08:22.577Z,10.90
2023-01-08T05:09:22.543Z,10.70
2023-01-08T05:10:22.505Z,10.10
2023-01-08T05:11:22.491Z,11.30
2023-01-08T05:12:22.472Z,11.00
2023-01-08T05:13:22.487Z,10.80
2023-01-08T05:14:22.440Z,10.40
2023-01-08T05:15:22.421Z,10.40
2023-01-08T05:16:22.407Z,10.70
2023-01-08T05:17:22.389Z,10.80
2023-01-08T05:18:22.438Z,11.00
2023-01-08T05:19:22.356Z,10.40
2023-01-08T05:20:22.376Z,10.30
2023-01-08T05:21:22.321Z,10.40
2023-01-08T05:22:22.307Z,10.00
2023-01-08T05:23:22.396Z,9.90
2023-01-08T05:24:22.284Z,10.40
2023-01-08T05:25:22.258Z,9.80
2023-01-08T05:26:22.239Z,9.90
2023-01-08T05:27:22.223Z,10.60
2023-01-08T05:28:22.229Z,9.60
2023-01-08T05:29:22.189Z,10.20
2023-01-08T05:30:22.163Z,9.90
2023-01-08T05:31:22.231Z,9.80
2023-01-08T05:32:22.128Z,9.60
2023-01-08T05:33:22.156Z,10.00
2023-01-08T05:34:22.096Z,9.60
2023-01-08T05:35:22.118Z,8.80
2023-01-08T05:36:22.061Z,9.40
2023-01-08T05:37:22.051Z,9.20
2023-01-08T05:38:22.071Z,9.70
2023-01-08T05:39:22.110Z,8.80
2023-01-08T05:40:21.993Z,9.50
2023-01-08T05:41:21.985Z,9.00
2023-01-08T05:42:21.973Z,9.40
2023-01-08T05:43:21.975Z,9.20
2023-01-08T05:44:21.968Z,9.00
2023-01-08T05:45:21.910Z,8.80
2023-01-08T05:46:21.947Z,8.70
2023-01-08T05:47:21.878Z,9.10
2023-01-08T05:48:21.891Z,8.70
2023-01-08T05:49:21.837Z,8.60
2023-01-08T05:50:21.827Z,8.20
2023-01-08T05:51:21.810Z,8.20
2023-01-08T05:52:21.813Z,8.60
2023-01-08T05:53:21.816Z,8.10
2023-01-08T05:54:21.775Z,8.20
2023-01-08T05:55:21.809Z,8.20
2023-01-08T05:56:21.736Z,8.70
2023-01-08T05:57:21.721Z,8.20
2023-01-08T05:58:21.748Z,7.50
2023-01-08T05:59:21.671Z,7.70
2023-01-08T06:00:21.663Z,7.80
2023-01-08T06:01:21.731Z,7.60
2023-01-08T06:02:21.723Z,7.20
2023-01-08T06:03:21.686Z,7.10
2023-01-08T06:04:21.613Z,7.20
2023-01-08T06:05:21.592Z,7.20
2023-01-08T06:06:21.561Z,7.20
2023-01-08T06:07:21.558Z,7.70
2023-01-08T06:08:21.608Z,7.30
2023-01-08T06:09:21.519Z,7.20
2023-01-08T06:10:21.504Z,7.10
2023-01-08T06:11:21.610Z,8.40
2023-01-08T06:12:21.455Z,7.60
2023-01-08T06:13:21.442Z,8.20
2023-01-08T06:14:21.464Z,8.30
2023-01-08T06:15:21.409Z,7.70
2023-01-08T06:16:21.449Z,7.90
2023-01-08T06:17:21.375Z,8.70
2023-01-08T06:18:21.361Z,7.70
2023-01-08T06:19:21.418Z,7.70
2023-01-08T06:20:21.333Z,7.70
2023-01-08T06:21:21.404Z,7.90
2023-01-08T06:22:21.302Z,7.70
2023-01-08T06:23:21.267Z,8.10
2023-01-08T06:24:21.299Z,7.20
2023-01-08T06:25:21.234Z,7.30
2023-01-08T06:26:21.225Z,7.10
2023-01-08T06:27:21.278Z,6.80
2023-01-08T06:28:21.189Z,7.00
2023-01-08T06:29:21.203Z,7.30
2023-01-08T06:30:21.156Z,7.80
2023-01-08T06:31:21.145Z,7.50
2023-01-08T06:32:21.114Z,7.60
2023-01-08T06:33:21.687Z,6.90
2023-01-08T06:34:22.109Z,7.30
2023-01-08T06:35:21.073Z,6.80
2023-01-08T06:36:21.068Z,6.70
2023-01-08T06:37:21.039Z,6.90
2023-01-08T06:38:21.009Z,7.50
2023-01-08T06:39:21.031Z,6.40
2023-01-08T06:40:20.981Z,6.70
2023-01-08T06:41:20.965Z,6.30
2023-01-08T06:42:20.951Z,6.90
2023-01-08T06:43:23.166Z,6.40
2023-01-08T06:44:20.937Z,7.00
2023-01-08T06:45:20.901Z,6.80
2023-01-08T06:46:20.937Z,6.60
2023-01-08T06:47:20.862Z,7.20
2023-01-08T06:48:20.844Z,6.50
2023-01-08T06:49:20.867Z,6.60
2023-01-08T06:50:20.826Z,6.60
2023-01-08T06:51:20.804Z,7.00
2023-01-08T06:52:20.794Z,6.60
2023-01-08T06:53:20.761Z,6.90
2023-01-08T06:54:20.781Z,6.80
2023-01-08T06:55:20.732Z,6.30
2023-01-08T06:56:20.710Z,6.80
2023-01-08T06:57:20.689Z,5.70
2023-01-08T06:58:20.683Z,5.60
2023-01-08T06:59:20.813Z,6.10
2023-01-08T07:00:20.639Z,6.20
2023-01-08T07:01:20.714Z,5.70
2023-01-08T07:02:22.352Z,6.50
2023-01-08T07:03:20.637Z,5.90
2023-01-08T07:04:20.622Z,6.30
2023-01-08T07:05:20.560Z,5.70
2023-01-08T07:06:20.543Z,5.80
2023-01-08T07:07:20.529Z,5.70
2023-01-08T07:08:20.500Z,5.50
2023-01-08T07:09:20.517Z,5.60
2023-01-08T07:10:20.457Z,5.40
2023-01-08T07:11:20.462Z,5.70
2023-01-08T07:12:20.431Z,5.80
2023-01-08T07:13:20.415Z,4.90
2023-01-08T07:14:20.428Z,5.20
2023-01-08T07:15:20.454Z,4.60
2023-01-08T07:16:20.453Z,4.70
2023-01-08T07:17:20.350Z,4.30
2023-01-08T07:18:20.338Z,3.90
2023-01-08T07:19:20.356Z,4.00
2023-01-08T07:20:20.343Z,4.00
2023-01-08T07:21:20.273Z,4.10
2023-01-08T07:22:20.283Z,4.40
2023-01-08T07:23:20.250Z,4.10
2023-01-08T07:24:20.265Z,4.30
2023-01-08T07:25:20.216Z,3.90
2023-01-08T07:26:20.206Z,3.80
2023-01-08T07:27:20.185Z,4.40
2023-01-08T07:28:20.168Z,3.70
2023-01-08T07:29:20.181Z,3.60
2023-01-08T07:30:29.366Z,3.60
2023-01-08T07:31:22.240Z,3.60
2023-01-08T07:32:20.102Z,3.80
2023-01-08T07:33:20.078Z,3.10
2023-01-08T07:34:20.117Z,3.30
2023-01-08T07:35:20.052Z,2.90
2023-01-08T07:36:20.032Z,3.30
2023-01-08T07:37:20.023Z,2.60
2023-01-08T07:38:19.988Z,3.00
2023-01-08T07:39:21.008Z,2.90
2023-01-08T07:40:19.976Z,2.80
2023-01-08T07:41:19.952Z,2.90
2023-01-08T07:42:19.933Z,2.90
2023-01-08T07:43:19.924Z,3.40
2023-01-08T07:44:19.928Z,2.50
2023-01-08T07:45:19.895Z,2.80
2023-01-08T07:46:19.913Z,2.90
2023-01-08T07:47:19.917Z,2.60
2023-01-08T07:48:19.857Z,2.90
2023-01-08T07:49:19.847Z,2.70
2023-01-08T07:50:20.622Z,2.80
2023-01-08T07:51:19.781Z,3.10
2023-01-08T07:52:19.766Z,3.10
2023-01-08T07:53:19.773Z,2.90
2023-01-08T07:54:19.770Z,3.20
2023-01-08T07:55:19.714Z,3.10
2023-01-08T07:56:19.697Z,3.50
2023-01-08T07:57:19.676Z,3.60
2023-01-08T07:58:19.666Z,3.30
2023-01-08T07:59:19.698Z,2.90
2023-01-08T08:00:19.642Z,3.00
2023-01-08T08:01:19.716Z,2.90
2023-01-08T08:02:19.732Z,3.00
2023-01-08T08:03:19.619Z,2.80
2023-01-08T08:04:19.592Z,2.90
2023-01-08T08:05:20.557Z,3.00
2023-01-08T08:06:19.530Z,2.70
2023-01-08T08:07:19.511Z,3.00
2023-01-08T08:08:20.519Z,2.90
2023-01-08T08:09:19.505Z,2.90
2023-01-08T08:10:19.471Z,2.90
2023-01-08T08:11:19.464Z,2.70
2023-01-08T08:12:19.459Z,2.80
2023-01-08T08:13:19.408Z,2.80
2023-01-08T08:14:19.448Z,2.60
2023-01-08T08:15:19.376Z,2.90
2023-01-08T08:16:19.452Z,2.80
2023-01-08T08:17:19.336Z,2.70
2023-01-08T08:18:19.347Z,2.70
2023-01-08T08:19:19.415Z,2.70
2023-01-08T08:20:19.290Z,2.60
2023-01-08T08:21:19.267Z,2.70
2023-01-08T08:22:19.256Z,2.70
2023-01-08T08:23:19.237Z,2.50
2023-01-08T08:24:19.267Z,2.50
2023-01-08T08:25:19.243Z,2.70
2023-01-08T08:26:19.181Z,2.50
2023-01-08T08:27:19.176Z,2.50
2023-01-08T08:28:19.185Z,2.80
2023-01-08T08:29:19.176Z,2.40
2023-01-08T08:30:19.140Z,2.60
2023-01-08T08:31:19.178Z,2.50
2023-01-08T08:32:19.097Z,2.50
2023-01-08T08:33:19.089Z,2.90
2023-01-08T08:34:19.087Z,2.80
2023-01-08T08:35:19.108Z,2.80
2023-01-08T08:36:19.020Z,2.60
2023-01-08T08:37:19.022Z,2.80
2023-01-08T08:38:19.001Z,3.00
2023-01-08T08:39:19.009Z,3.00
2023-01-08T08:40:18.972Z,2.90
2023-01-08T08:41:18.955Z,3.10
2023-01-08T08:42:18.953Z,3.00
2023-01-08T08:43:18.904Z,2.90
2023-01-08T08:44:18.923Z,3.10
2023-01-08T08:45:18.875Z,3.00
2023-01-08T08:46:18.875Z,3.20
2023-01-08T08:47:18.836Z,4.00
2023-01-08T08:48:18.849Z,4.20
2023-01-08T08:49:18.834Z,3.80
2023-01-08T08:50:18.810Z,3.50
2023-01-08T08:51:18.837Z,3.30
2023-01-08T08:52:18.839Z,3.20
2023-01-08T08:53:18.724Z,3.30
2023-01-08T08:54:18.759Z,3.40
2023-01-08T08:55:18.694Z,3.20
2023-01-08T08:56:18.676Z,3.40
2023-01-08T08:57:18.668Z,3.20
2023-01-08T08:58:18.659Z,3.30
2023-01-08T08:59:18.656Z,3.80
2023-01-08T09:00:18.613Z,3.70
2023-01-08T09:01:18.954Z,3.50
2023-01-08T09:02:18.834Z,3.70
2023-01-08T09:03:18.674Z,3.80
2023-01-08T09:04:18.577Z,3.70
2023-01-08T09:05:18.540Z,3.80
2023-01-08T09:06:18.509Z,3.70
2023-01-08T09:07:18.567Z,3.50
2023-01-08T09:08:18.471Z,3.90
2023-01-08T09:09:18.505Z,3.40
2023-01-08T09:10:18.455Z,3.80
2023-01-08T09:11:18.423Z,3.70
2023-01-08T09:12:18.414Z,4.30
2023-01-08T09:13:18.387Z,3.80
2023-01-08T09:14:18.419Z,3.90
2023-01-08T09:15:18.359Z,3.50
2023-01-08T09:16:18.382Z,3.60
2023-01-08T09:17:18.326Z,3.70
2023-01-08T09:18:18.405Z,3.70
2023-01-08T09:19:18.285Z,4.20
2023-01-08T09:20:18.311Z,3.90
2023-01-08T09:21:18.249Z,3.80
2023-01-08T09:22:18.236Z,3.90
2023-01-08T09:23:18.283Z,4.00
2023-01-08T09:24:18.434Z,4.00
2023-01-08T09:25:18.242Z,4.20
2023-01-08T09:26:18.165Z,4.00
2023-01-08T09:27:18.145Z,3.70
2023-01-08T09:28:19.149Z,4.20
2023-01-08T09:29:18.120Z,4.00
2023-01-08T09:30:18.158Z,4.10
2023-01-08T09:31:18.231Z,3.60
2023-01-08T09:32:18.061Z,4.00
2023-01-08T09:33:18.078Z,3.90
2023-01-08T09:34:18.027Z,5.10
2023-01-08T09:35:18.046Z,5.60
2023-01-08T09:36:18.000Z,5.10
2023-01-08T09:37:17.982Z,7.10
2023-01-08T09:38:17.968Z,6.00
2023-01-08T09:39:18.068Z,4.80
2023-01-08T09:40:18.033Z,4.80
2023-01-08T09:41:17.917Z,5.20
2023-01-08T09:42:17.908Z,4.60
2023-01-08T09:43:17.884Z,5.30
2023-01-08T09:44:17.856Z,4.80
2023-01-08T09:45:18.030Z,5.20
2023-01-08T09:46:17.926Z,6.00
2023-01-08T09:47:17.806Z,5.60
2023-01-08T09:48:17.809Z,5.50
2023-01-08T09:49:17.771Z,6.00
2023-01-08T09:50:17.800Z,5.90
2023-01-08T09:51:17.799Z,4.70
2023-01-08T09:52:17.724Z,4.30
2023-01-08T09:53:17.712Z,4.40
2023-01-08T09:54:17.739Z,4.30
2023-01-08T09:55:17.780Z,4.30
2023-01-08T09:56:17.657Z,4.90
2023-01-08T09:57:17.643Z,4.20
2023-01-08T09:58:17.624Z,4.20
2023-01-08T09:59:17.627Z,4.20
2023-01-08T10:00:17.635Z,4.40
2023-01-08T10:01:17.680Z,4.40
2023-01-08T10:02:17.742Z,4.40
2023-01-08T10:03:17.543Z,4.10
2023-01-08T10:04:17.527Z,3.90
2023-01-08T10:05:17.530Z,4.10
2023-01-08T10:06:17.484Z,4.40
2023-01-08T10:07:17.481Z,4.10
2023-01-08T10:08:17.453Z,5.50
2023-01-08T10:09:17.446Z,7.10
2023-01-08T10:10:17.495Z,6.40
2023-01-08T10:11:17.476Z,5.60
2023-01-08T10:12:17.407Z,4.70
2023-01-08T10:13:17.373Z,5.00
2023-01-08T10:14:17.379Z,4.30
2023-01-08T10:15:17.375Z,4.30
2023-01-08T10:16:17.373Z,4.40
2023-01-08T10:17:17.298Z,4.30
2023-01-08T10:18:17.291Z,4.00
2023-01-08T10:19:17.268Z,4.30
2023-01-08T10:20:17.287Z,4.60
2023-01-08T10:21:17.230Z,4.80
2023-01-08T10:22:17.232Z,4.50
2023-01-08T10:23:17.194Z,4.80
2023-01-08T10:24:17.229Z,4.60
2023-01-08T10:25:17.202Z,4.40
2023-01-08T10:26:17.142Z,4.30
2023-01-08T10:27:17.171Z,4.50
2023-01-08T10:28:17.112Z,4.20
2023-01-08T10:29:17.112Z,4.40
2023-01-08T10:30:17.116Z,3.90
2023-01-08T10:31:17.132Z,3.80
2023-01-08T10:32:17.047Z,4.10
2023-01-08T10:33:17.036Z,3.80
2023-01-08T10:34:17.009Z,3.60
2023-01-08T10:35:17.037Z,3.60
2023-01-08T10:36:17.007Z,3.40
2023-01-08T10:37:49.341Z,3.70
2023-01-08T10:38:17.037Z,3.40
2023-01-08T10:39:16.935Z,3.50
2023-01-08T10:40:16.957Z,3.80
2023-01-08T10:41:16.900Z,3.70
2023-01-08T10:42:16.920Z,5.40
2023-01-08T10:43:16.960Z,5.10
2023-01-08T10:44:16.838Z,4.10
2023-01-08T10:45:16.964Z,4.90
2023-01-08T10:46:16.901Z,4.60
2023-01-08T10:47:17.808Z,4.50
2023-01-08T10:48:16.778Z,4.50
2023-01-08T10:49:16.874Z,4.10
2023-01-08T10:50:16.773Z,3.60
2023-01-08T10:51:16.747Z,3.80
2023-01-08T10:52:16.751Z,3.80
2023-01-08T10:53:16.703Z,3.90
2023-01-08T10:54:16.687Z,4.00
2023-01-08T10:55:16.700Z,3.60
2023-01-08T10:56:16.665Z,3.70
2023-01-08T10:57:16.664Z,3.50
2023-01-08T10:58:16.611Z,3.60
2023-01-08T10:59:16.581Z,3.60
2023-01-08T11:00:16.689Z,3.80
2023-01-08T11:01:16.755Z,4.10
2023-01-08T11:02:16.593Z,4.90
2023-01-08T11:03:16.607Z,4.40
2023-01-08T11:04:16.522Z,3.30
2023-01-08T11:05:16.545Z,4.00
2023-01-08T11:06:16.511Z,3.80
2023-01-08T11:07:16.445Z,3.40
2023-01-08T11:08:16.479Z,3.40
2023-01-08T11:09:16.447Z,3.60
2023-01-08T11:10:16.443Z,3.10
2023-01-08T11:11:16.415Z,3.30
2023-01-08T11:12:16.364Z,3.30
2023-01-08T11:13:16.373Z,3.90
2023-01-08T11:14:16.372Z,3.70
2023-01-08T11:15:16.425Z,4.10
2023-01-08T11:16:16.485Z,3.80
2023-01-08T11:17:16.333Z,4.50
2023-01-08T11:18:16.283Z,4.30
2023-01-08T11:19:16.302Z,4.30
2023-01-08T11:20:16.326Z,4.20
2023-01-08T11:21:16.206Z,4.10
2023-01-08T11:22:16.240Z,4.20
2023-01-08T11:23:16.207Z,4.30
2023-01-08T11:24:16.303Z,4.20
2023-01-08T11:25:16.190Z,4.30
2023-01-08T11:26:16.138Z,4.40
2023-01-08T11:27:16.134Z,3.80
2023-01-08T11:28:16.107Z,3.60
2023-01-08T11:29:16.089Z,3.70
2023-01-08T11:30:16.134Z,3.90
2023-01-08T11:31:16.109Z,4.10
2023-01-08T11:32:16.026Z,3.70
2023-01-08T11:33:16.025Z,4.10
2023-01-08T11:34:16.028Z,4.10
2023-01-08T11:35:16.043Z,4.00
2023-01-08T11:36:15.970Z,4.80
2023-01-08T11:37:15.949Z,4.90
2023-01-08T11:38:15.930Z,4.20
2023-01-08T11:39:15.938Z,4.30
2023-01-08T11:40:16.261Z,4.40
2023-01-08T11:41:16.065Z,4.60
2023-01-08T11:42:15.932Z,4.20
2023-01-08T11:43:15.996Z,4.40
2023-01-08T11:44:15.844Z,3.50
2023-01-08T11:45:15.817Z,4.30
2023-01-08T11:46:15.828Z,4.10
2023-01-08T11:47:15.799Z,3.90
2023-01-08T11:48:15.790Z,3.80
2023-01-08T11:49:15.754Z,3.50
2023-01-08T11:50:15.736Z,3.50
2023-01-08T11:51:15.750Z,3.60
2023-01-08T11:52:15.831Z,3.60
2023-01-08T11:53:15.700Z,3.60
2023-01-08T11:54:15.733Z,3.50
2023-01-08T11:55:15.662Z,3.50
2023-01-08T11:56:15.756Z,3.40
2023-01-08T11:57:15.772Z,3.40
2023-01-08T11:58:15.597Z,3.20
2023-01-08T11:59:15.624Z,3.40
2023-01-08T12:00:15.612Z,3.80
2023-01-08T12:01:15.652Z,3.10
2023-01-08T12:02:15.664Z,3.00
2023-01-08T12:03:15.603Z,3.00
2023-01-08T12:04:15.502Z,3.30
2023-01-08T12:05:15.511Z,2.90
2023-01-08T12:06:15.490Z,3.50
2023-01-08T12:07:15.443Z,3.20
2023-01-08T12:08:15.424Z,3.40
2023-01-08T12:09:15.472Z,3.40
2023-01-08T12:10:15.415Z,3.40
2023-01-08T12:11:15.433Z,3.30
2023-01-08T12:12:15.377Z,3.60
2023-01-08T12:13:15.357Z,3.90
2023-01-08T12:14:15.350Z,3.50
2023-01-08T12:15:15.321Z,3.50
2023-01-08T12:16:15.371Z,4.00
2023-01-08T12:17:15.290Z,3.60
2023-01-08T12:18:15.263Z,3.50
2023-01-08T12:19:15.243Z,3.90
2023-01-08T12:20:16.345Z,4.00
2023-01-08T12:21:15.263Z,3.40
2023-01-08T12:22:15.201Z,3.80
2023-01-08T12:23:15.206Z,3.40
2023-01-08T12:24:15.163Z,4.10
2023-01-08T12:25:15.156Z,3.80
2023-01-08T12:26:15.170Z,3.80
2023-01-08T12:27:15.124Z,3.50
2023-01-08T12:28:15.120Z,3.20
2023-01-08T12:29:15.141Z,3.70
2023-01-08T12:30:15.065Z,4.00
2023-01-08T12:31:15.126Z,3.50
2023-01-08T12:32:15.073Z,3.80
2023-01-08T12:33:15.016Z,3.40
2023-01-08T12:34:15.036Z,3.60
2023-01-08T12:35:15.001Z,3.10
2023-01-08T12:36:15.003Z,3.20
2023-01-08T12:37:14.961Z,2.90
2023-01-08T12:38:14.943Z,3.20
2023-01-08T12:39:14.917Z,3.00
2023-01-08T12:40:14.901Z,3.30
2023-01-08T12:41:14.912Z,3.40
2023-01-08T12:42:14.863Z,3.20
2023-01-08T12:43:14.855Z,3.60
2023-01-08T12:44:14.826Z,3.60
2023-01-08T12:45:14.806Z,3.40
2023-01-08T12:46:14.898Z,3.10
2023-01-08T12:47:14.774Z,3.30
2023-01-08T12:48:14.787Z,3.40
2023-01-08T12:49:14.762Z,3.60
2023-01-08T12:50:14.742Z,3.40
2023-01-08T12:51:14.758Z,3.30
2023-01-08T12:52:14.699Z,3.30
2023-01-08T12:53:14.691Z,3.60
2023-01-08T12:54:14.674Z,3.10
2023-01-08T12:55:14.731Z,3.50
2023-01-08T12:56:14.665Z,3.80
2023-01-08T12:57:14.636Z,3.40
2023-01-08T12:58:14.589Z,4.10
2023-01-08T12:59:14.575Z,4.80
2023-01-08T13:00:14.562Z,4.40
2023-01-08T13:01:14.674Z,4.60
2023-01-08T13:02:14.664Z,4.20
2023-01-08T13:03:14.522Z,3.40
2023-01-08T13:04:14.498Z,3.80
2023-01-08T13:05:14.549Z,3.70
2023-01-08T13:06:14.492Z,3.70
2023-01-08T13:07:14.485Z,3.40
2023-01-08T13:08:14.513Z,5.40
2023-01-08T13:09:14.407Z,3.90
2023-01-08T13:10:14.395Z,3.40
2023-01-08T13:11:14.405Z,3.50
2023-01-08T13:12:14.420Z,3.70
2023-01-08T13:13:15.387Z,4.00
2023-01-08T13:14:14.440Z,4.10
2023-01-08T13:15:14.323Z,3.70
2023-01-08T13:16:14.396Z,3.20
2023-01-08T13:17:14.278Z,3.70